createdAt,value
2023-04-04T00:00:15.447Z,1.55
2023-04-04T00:02:42.229Z,1.58
2023-04-04T00:05:09.659Z,1.47
2023-04-04T00:07:36.250Z,1.48
2023-04-04T00:10:03.183Z,1.56
2023-04-04T00:12:30.042Z,1.59
2023-04-04T00:14:57.479Z,1.67
2023-04-04T00:17:24.033Z,1.65
2023-04-04T00:19:50.534Z,1.60
2023-04-04T00:22:18.107Z,1.50
2023-04-04T00:24:44.593Z,1.38
2023-04-04T00:27:11.099Z,1.40
2023-04-04T00:29:37.977Z,1.29
2023-04-04T00:32:04.497Z,1.32
2023-04-04T00:34:31.255Z,1.34
2023-04-04T00:36:58.648Z,1.37
2023-04-04T00:39:26.536Z,1.29
2023-04-04T00:41:53.104Z,1.29
2023-04-04T00:44:19.758Z,1.40
2023-04-04T00:46:46.439Z,1.46
2023-04-04T00:49:12.868Z,1.44
2023-04-04T00:51:39.268Z,1.41
2023-04-04T00:54:05.968Z,1.20
2023-04-04T00:56:33.248Z,1.20
2023-04-04T00:59:00.849Z,1.20
2023-04-04T01:01:27.550Z,1.24
2023-04-04T01:03:54.583Z,1.27
2023-04-04T01:06:21.554Z,1.19
2023-04-04T01:08:48.997Z,1.13
2023-04-04T01:11:16.731Z,1.18
2023-04-04T01:13:44.261Z,1.22
2023-04-04T01:16:10.895Z,1.22
2023-04-04T01:18:41.206Z,1.17
2023-04-04T01:21:11.296Z,1.12
2023-04-04T01:23:58.658Z,1.11
2023-04-04T01:26:27.137Z,1.00
2023-04-04T01:28:54.531Z,0.99
2023-04-04T01:31:48.193Z,1.12
2023-04-04T01:34:24.474Z,1.17
2023-04-04T01:37:28.221Z,1.23
2023-04-04T01:40:05.249Z,1.23
2023-04-04T01:42:32.112Z,1.20
2023-04-04T01:44:58.687Z,1.20
2023-04-04T01:47:25.185Z,1.04
2023-04-04T01:49:53.972Z,1.04
2023-04-04T01:52:20.642Z,0.93
2023-04-04T01:54:47.064Z,0.86
2023-04-04T01:57:13.985Z,0.78
2023-04-04T01:59:40.379Z,0.70
2023-04-04T02:02:06.865Z,0.72
2023-04-04T02:04:33.954Z,0.69
2023-04-04T02:07:00.586Z,0.77
2023-04-04T02:09:27.086Z,0.79
2023-04-04T02:11:53.534Z,0.87
2023-04-04T02:14:20.108Z,0.95
2023-04-04T02:16:46.584Z,0.94
2023-04-04T02:19:13.102Z,0.95
2023-04-04T02:21:39.653Z,0.75
2023-04-04T02:24:06.544Z,0.57
2023-04-04T02:26:33.098Z,0.54
2023-04-04T02:28:59.686Z,0.51
2023-04-04T02:31:26.470Z,0.42
2023-04-04T02:33:52.933Z,0.37
2023-04-04T02:36:19.373Z,0.38
2023-04-04T02:38:45.837Z,0.37
2023-04-04T02:41:12.503Z,0.47
2023-04-04T02:43:38.965Z,0.46
2023-04-04T02:46:18.427Z,0.53
2023-04-04T02:48:47.949Z,0.50
2023-04-04T02:51:14.437Z,0.57
2023-04-04T02:53:40.854Z,0.53
2023-04-04T02:56:07.652Z,0.49
2023-04-04T02:58:34.626Z,0.43
2023-04-04T03:01:01.264Z,0.37
2023-04-04T03:03:27.893Z,0.30
2023-04-04T03:05:54.568Z,0.34
2023-04-04T03:08:20.974Z,0.40
2023-04-04T03:10:47.383Z,0.40
2023-04-04T03:13:13.811Z,0.42
2023-04-04T03:15:43.928Z,0.46
2023-04-04T03:18:14.013Z,0.51
2023-04-04T03:20:40.683Z,0.41
2023-04-04T03:23:07.352Z,0.35
2023-04-04T03:25:33.781Z,0.38
2023-04-04T03:28:08.749Z,0.39
2023-04-04T03:30:35.282Z,0.22
2023-04-04T03:33:08.428Z,0.12
2023-04-04T03:35:41.760Z,0.09
2023-04-04T03:38:09.460Z,0.16
2023-04-04T03:40:36.042Z,0.21
2023-04-04T03:43:02.584Z,0.31
2023-04-04T03:45:32.664Z,0.38
2023-04-04T03:47:59.108Z,0.35
2023-04-04T03:50:25.685Z,0.24
2023-04-04T03:52:52.133Z,0.16
2023-04-04T03:55:18.770Z,0.06
2023-04-04T03:57:45.500Z,0.03
2023-04-04T04:00:12.389Z,-0.05
2023-04-04T04:02:39.432Z,-0.02
2023-04-04T04:05:06.162Z,-0.02
2023-04-04T04:07:32.635Z,0.02
2023-04-04T04:09:59.350Z,0.03
2023-04-04T04:12:26.282Z,-0.06
2023-04-04T04:14:53.048Z,-0.10
2023-04-04T04:17:19.782Z,-0.21
2023-04-04T04:19:46.598Z,-0.20
2023-04-04T04:22:12.999Z,-0.18
2023-04-04T04:24:39.426Z,-0.23
2023-04-04T04:27:06.920Z,-0.20
2023-04-04T04:29:33.456Z,-0.24
2023-04-04T04:31:59.982Z,-0.28
2023-04-04T04:34:26.463Z,-0.19
2023-04-04T04:36:53.832Z,-0.12
2023-04-04T04:39:20.685Z,-0.10
2023-04-04T04:41:47.337Z,-0.11
2023-04-04T04:44:13.794Z,-0.18
2023-04-04T04:46:40.738Z,-0.10
2023-04-04T04:49:07.178Z,-0.03
2023-04-04T04:51:33.660Z,-0.04
2023-04-04T04:54:00.449Z,-0.03
2023-04-04T04:56:26.877Z,-0.10
2023-04-04T04:58:53.367Z,-0.19
2023-04-04T05:01:19.857Z,-0.27
2023-04-04T05:03:46.268Z,-0.20
2023-04-04T05:06:12.727Z,-0.25
2023-04-04T05:08:39.222Z,-0.33
2023-04-04T05:11:05.843Z,-0.31
2023-04-04T05:13:32.402Z,-0.31
2023-04-04T05:15:59.100Z,-0.22
2023-04-04T05:18:27.443Z,-0.27
2023-04-04T05:20:54.743Z,-0.28
2023-04-04T05:23:21.512Z,-0.20
2023-04-04T05:25:53.356Z,-0.13
2023-04-04T05:28:20.917Z,-0.13
2023-04-04T05:30:47.559Z,-0.18
2023-04-04T05:33:14.027Z,-0.21
2023-04-04T05:35:41.344Z,-0.15
2023-04-04T05:38:07.974Z,-0.15
2023-04-04T05:40:34.436Z,-0.25
2023-04-04T05:43:04.223Z,-0.23
2023-04-04T05:45:31.644Z,-0.23
2023-04-04T05:47:58.295Z,-0.21
2023-04-04T05:50:25.446Z,-0.29
2023-04-04T05:52:54.915Z,-0.25
2023-04-04T05:55:21.677Z,-0.16
2023-04-04T05:57:51.790Z,-0.18
2023-04-04T06:00:19.561Z,-0.11
2023-04-04T06:02:46.154Z,-0.05
2023-04-04T06:05:12.700Z,-0.11
2023-04-04T06:07:39.200Z,-0.09
2023-04-04T06:10:06.420Z,-0.02
2023-04-04T06:12:32.948Z,-0.07
2023-04-04T06:14:59.410Z,-0.06
2023-04-04T06:17:26.106Z,-0.05
2023-04-04T06:19:53.834Z,0.00
2023-04-04T06:22:21.531Z,0.02
2023-04-04T06:24:48.036Z,0.07
2023-04-04T06:27:14.572Z,0.15
2023-04-04T06:29:41.536Z,0.22
2023-04-04T06:32:08.070Z,0.26
2023-04-04T06:34:34.467Z,0.32
2023-04-04T06:37:01.034Z,0.35
2023-04-04T06:39:27.605Z,0.40
2023-04-04T06:41:54.131Z,0.47
2023-04-04T06:44:20.651Z,0.53
2023-04-04T06:46:47.936Z,0.62
2023-04-04T06:49:14.422Z,0.64
2023-04-04T06:51:41.726Z,0.69
2023-04-04T06:54:08.697Z,0.79
2023-04-04T06:56:35.137Z,0.84
2023-04-04T06:59:01.642Z,0.92
2023-04-04T07:01:28.203Z,0.98
2023-04-04T07:03:54.807Z,1.04
2023-04-04T07:06:25.914Z,1.09
2023-04-04T07:08:52.936Z,1.12
2023-04-04T07:11:19.433Z,1.15
2023-04-04T07:13:45.972Z,1.21
2023-04-04T07:16:12.431Z,1.28
2023-04-04T07:18:38.958Z,1.34
2023-04-04T07:21:05.563Z,1.39
2023-04-04T07:23:31.982Z,1.50
2023-04-04T07:25:58.488Z,1.56
2023-04-04T07:28:24.988Z,1.58
2023-04-04T07:30:51.696Z,1.62
2023-04-04T07:33:18.135Z,1.67
2023-04-04T07:35:44.671Z,1.70
2023-04-04T07:38:11.107Z,1.77
2023-04-04T07:40:37.969Z,1.91
2023-04-04T07:43:04.740Z,2.03
2023-04-04T07:45:31.694Z,2.08
2023-04-04T07:47:58.226Z,2.15
2023-04-04T07:50:24.764Z,2.26
2023-04-04T07:52:58.623Z,2.33
2023-04-04T07:55:25.978Z,2.42
2023-04-04T07:57:53.168Z,2.52
2023-04-04T08:00:21.914Z,2.53
2023-04-04T08:02:53.564Z,2.55
2023-04-04T08:05:20.293Z,2.59
2023-04-04T08:07:47.364Z,2.71
2023-04-04T08:10:17.321Z,2.74
2023-04-04T08:12:45.023Z,2.76
2023-04-04T08:15:12.042Z,2.81
2023-04-04T08:17:38.803Z,2.90
2023-04-04T08:20:05.999Z,2.88
2023-04-04T08:22:33.738Z,2.89
2023-04-04T08:25:00.603Z,2.93
2023-04-04T08:27:27.374Z,3.03
2023-04-04T08:29:54.019Z,3.12
2023-04-04T08:32:20.553Z,3.16
2023-04-04T08:34:47.100Z,3.20
2023-04-04T08:37:13.585Z,3.19
2023-04-04T08:39:40.000Z,3.16
2023-04-04T08:42:07.584Z,3.23
2023-04-04T08:44:35.590Z,3.34
2023-04-04T08:47:09.222Z,3.30
2023-04-04T08:49:38.491Z,3.41
2023-04-04T08:52:06.420Z,3.46
2023-04-04T08:54:34.910Z,3.55
2023-04-04T08:57:02.454Z,3.60
2023-04-04T08:59:29.126Z,3.64
2023-04-04T09:02:10.972Z,3.66
2023-04-04T09:04:39.654Z,3.75
2023-04-04T09:07:06.999Z,3.77
2023-04-04T09:09:34.184Z,3.75
2023-04-04T09:12:02.113Z,3.82
2023-04-04T09:14:30.352Z,3.86
2023-04-04T09:16:57.360Z,3.91
2023-04-04T09:19:25.806Z,3.82
2023-04-04T09:21:52.915Z,3.81
2023-04-04T09:24:19.348Z,3.80
2023-04-04T09:26:53.716Z,3.81
2023-04-04T09:29:21.364Z,3.93
2023-04-04T09:31:49.525Z,3.93
2023-04-04T09:34:18.963Z,4.02
2023-04-04T09:36:46.269Z,4.06
2023-04-04T09:39:16.531Z,4.11
2023-04-04T09:41:45.474Z,4.14
2023-04-04T09:44:13.182Z,4.18
2023-04-04T09:46:40.664Z,4.22
2023-04-04T09:49:12.696Z,4.29
2023-04-04T09:51:41.860Z,4.33
2023-04-04T09:54:18.718Z,4.33
2023-04-04T09:56:49.914Z,4.38
2023-04-04T09:59:18.465Z,4.48
2023-04-04T10:01:46.149Z,4.39
2023-04-04T10:04:14.434Z,4.29
2023-04-04T10:06:43.898Z,4.31
2023-04-04T10:09:10.457Z,4.33
2023-04-04T10:11:38.545Z,4.39
2023-04-04T10:14:05.064Z,4.49
2023-04-04T10:16:33.647Z,4.53
2023-04-04T10:19:02.009Z,4.65
2023-04-04T10:21:29.065Z,4.50
2023-04-04T10:23:57.378Z,4.40
2023-04-04T10:26:25.983Z,4.39
2023-04-04T10:28:52.502Z,4.58
2023-04-04T10:31:26.087Z,4.70
2023-04-04T10:34:18.797Z,4.77
2023-04-04T10:36:50.150Z,4.80
2023-04-04T10:39:38.143Z,5.00
2023-04-04T10:42:07.045Z,5.10
2023-04-04T10:44:37.910Z,5.08
2023-04-04T10:47:17.415Z,5.07
2023-04-04T10:49:45.681Z,5.02
2023-04-04T10:52:17.574Z,5.01
2023-04-04T10:54:44.858Z,5.12
2023-04-04T10:57:14.073Z,5.26
2023-04-04T10:59:58.116Z,5.27
2023-04-04T11:02:47.054Z,5.21
2023-04-04T11:05:22.185Z,5.21
2023-04-04T11:10:37.305Z,5.19
2023-04-04T11:13:14.004Z,5.15
2023-04-04T11:15:53.541Z,5.16
2023-04-04T11:18:32.013Z,5.32
2023-04-04T11:21:06.729Z,5.57
2023-04-04T11:23:59.628Z,5.49
2023-04-04T11:26:26.391Z,5.74
2023-04-04T11:28:56.885Z,5.61
2023-04-04T11:31:25.807Z,5.51
2023-04-04T11:34:08.066Z,5.49
2023-04-04T11:36:38.121Z,5.62
2023-04-04T11:39:21.124Z,5.73
2023-04-04T11:42:10.143Z,5.89
2023-04-04T11:44:42.966Z,5.99
2023-04-04T11:47:13.547Z,5.87
2023-04-04T11:49:42.317Z,5.89
2023-04-04T11:52:11.548Z,5.91
2023-04-04T11:54:39.015Z,5.98
2023-04-04T11:57:11.903Z,6.08
2023-04-04T11:59:43.713Z,5.99
2023-04-04T12:02:11.318Z,5.84
2023-04-04T12:04:43.447Z,6.21
2023-04-04T12:07:10.771Z,6.45
2023-04-04T12:09:38.315Z,6.48
2023-04-04T12:12:05.135Z,6.54
2023-04-04T12:14:32.871Z,6.57
2023-04-04T12:16:59.900Z,6.73
2023-04-04T12:19:28.613Z,6.76
2023-04-04T12:21:57.533Z,6.71
2023-04-04T12:24:24.364Z,6.93
2023-04-04T12:26:52.441Z,6.99
2023-04-04T12:29:21.880Z,7.40
2023-04-04T12:31:49.740Z,7.90
2023-04-04T12:37:02.481Z,8.39
2023-04-04T12:39:29.801Z,8.92
2023-04-04T12:42:03.724Z,8.98
2023-04-04T12:44:32.491Z,9.07
2023-04-04T12:47:09.860Z,9.09
2023-04-04T12:49:43.134Z,8.97
2023-04-04T12:52:32.088Z,8.89
2023-04-04T12:55:08.098Z,8.92
2023-04-04T12:57:36.752Z,9.18
2023-04-04T13:00:06.199Z,9.45
2023-04-04T13:02:35.912Z,9.58
2023-04-04T13:05:03.628Z,9.63
2023-04-04T13:07:32.984Z,9.34
2023-04-04T13:10:04.537Z,9.50
2023-04-04T13:13:00.013Z,9.29
2023-04-04T13:15:50.345Z,9.57
2023-04-04T13:18:21.145Z,10.04
2023-04-04T13:20:52.028Z,9.98
2023-04-04T13:23:19.234Z,9.87
2023-04-04T13:25:46.174Z,9.99
2023-04-04T13:28:12.970Z,10.45
2023-04-04T13:30:43.567Z,10.75
2023-04-04T13:33:10.164Z,10.60
2023-04-04T13:35:37.120Z,10.29
2023-04-04T13:38:03.606Z,10.65
2023-04-04T13:40:30.171Z,10.98
2023-04-04T13:42:56.775Z,10.87
2023-04-04T13:45:23.665Z,10.47
2023-04-04T13:47:50.196Z,10.42
2023-04-04T13:50:16.772Z,10.33
2023-04-04T13:52:43.223Z,10.48
2023-04-04T13:55:10.770Z,10.65
2023-04-04T13:57:37.340Z,10.59
2023-04-04T14:00:05.558Z,10.69
2023-04-04T14:02:32.168Z,10.53
2023-04-04T14:04:58.690Z,10.53
2023-04-04T14:07:25.321Z,10.34
2023-04-04T14:09:51.782Z,10.28
2023-04-04T14:12:18.319Z,10.35
2023-04-04T14:14:44.756Z,10.17
2023-04-04T14:17:11.353Z,10.17
2023-04-04T14:19:39.304Z,10.17
2023-04-04T14:22:06.309Z,10.35
2023-04-04T14:24:32.844Z,10.14
2023-04-04T14:26:59.267Z,10.03
2023-04-04T14:29:25.700Z,10.07
2023-04-04T14:31:52.258Z,10.13
2023-04-04T14:34:18.776Z,10.19
2023-04-04T14:36:45.236Z,10.11
2023-04-04T14:39:12.823Z,10.09
2023-04-04T14:41:39.336Z,10.34
2023-04-04T14:44:06.461Z,10.54
2023-04-04T14:46:34.112Z,10.70
2023-04-04T14:49:01.269Z,10.73
2023-04-04T14:51:27.689Z,10.60
2023-04-04T14:53:54.161Z,10.52
2023-04-04T14:56:23.164Z,10.39
2023-04-04T14:58:50.714Z,10.18
2023-04-04T15:01:17.428Z,10.06
2023-04-04T15:03:44.051Z,10.17
2023-04-04T15:06:10.684Z,10.23
2023-04-04T15:08:37.841Z,10.07
2023-04-04T15:11:04.599Z,10.08
2023-04-04T15:13:31.369Z,9.92
2023-04-04T15:16:00.010Z,9.90
2023-04-04T15:18:26.592Z,9.82
2023-04-04T15:20:53.100Z,9.82
2023-04-04T15:23:19.661Z,9.72
2023-04-04T15:25:46.494Z,9.54
2023-04-04T15:28:12.990Z,9.52
2023-04-04T15:30:39.679Z,9.50
2023-04-04T15:33:06.396Z,9.41
2023-04-04T15:35:32.996Z,9.27
2023-04-04T15:37:59.531Z,9.19
2023-04-04T15:40:26.286Z,9.18
2023-04-04T15:42:52.733Z,9.15
2023-04-04T15:45:19.287Z,9.21
2023-04-04T15:47:46.143Z,9.18
2023-04-04T15:50:12.751Z,9.12
2023-04-04T15:52:39.275Z,9.05
2023-04-04T15:55:11.542Z,8.98
2023-04-04T15:57:38.362Z,8.90
2023-04-04T16:00:05.585Z,8.90
2023-04-04T16:02:32.184Z,8.88
2023-04-04T16:04:58.722Z,8.85
2023-04-04T16:07:25.883Z,8.83
2023-04-04T16:09:52.342Z,8.77
2023-04-04T16:12:20.104Z,8.65
2023-04-04T16:14:46.621Z,8.61
2023-04-04T16:17:13.092Z,8.59
2023-04-04T16:19:39.575Z,8.58
2023-04-04T16:22:06.364Z,8.55
2023-04-04T16:24:32.853Z,8.51
2023-04-04T16:26:59.301Z,8.43
2023-04-04T16:29:25.868Z,8.38
2023-04-04T16:31:53.103Z,8.32
2023-04-04T16:34:19.649Z,8.29
2023-04-04T16:36:46.254Z,8.24
2023-04-04T16:39:13.324Z,8.23
2023-04-04T16:41:41.121Z,8.16
2023-04-04T16:44:07.645Z,8.13
2023-04-04T16:46:34.172Z,8.10
2023-04-04T16:49:00.983Z,8.07
2023-04-04T16:51:28.596Z,8.06
2023-04-04T16:53:55.211Z,8.06
2023-04-04T16:56:21.637Z,8.05
2023-04-04T16:58:48.367Z,8.05
2023-04-04T17:01:16.560Z,8.06
2023-04-04T17:03:43.154Z,8.02
2023-04-04T17:06:09.835Z,8.00
2023-04-04T17:08:36.537Z,7.98
2023-04-04T17:11:03.150Z,7.98
2023-04-04T17:13:30.168Z,7.95
2023-04-04T17:15:57.596Z,7.88
2023-04-04T17:18:24.112Z,7.84
2023-04-04T17:20:52.196Z,7.80
2023-04-04T17:23:18.686Z,7.76
2023-04-04T17:25:45.106Z,7.74
2023-04-04T17:28:11.525Z,7.69
2023-04-04T17:30:38.009Z,7.65
2023-04-04T17:33:04.949Z,7.57
2023-04-04T17:35:31.471Z,7.49
2023-04-04T17:37:57.880Z,7.43
2023-04-04T17:40:24.391Z,7.39
2023-04-04T17:42:53.850Z,7.34
2023-04-04T17:45:20.348Z,7.36
2023-04-04T17:47:47.146Z,7.33
2023-04-04T17:50:13.670Z,7.33
2023-04-04T17:52:40.329Z,7.30
2023-04-04T17:55:08.606Z,7.27
2023-04-04T17:57:35.117Z,7.22
2023-04-04T18:00:01.686Z,7.15
2023-04-04T18:02:28.242Z,7.07
2023-04-04T18:04:56.925Z,7.02
2023-04-04T18:07:23.343Z,7.02
2023-04-04T18:09:49.825Z,6.99
2023-04-04T18:12:17.737Z,6.87
2023-04-04T18:14:44.212Z,6.66
2023-04-04T18:17:10.957Z,6.55
2023-04-04T18:19:38.962Z,6.53
2023-04-04T18:22:06.292Z,6.56
2023-04-04T18:24:32.731Z,6.57
2023-04-04T18:26:59.325Z,6.57
2023-04-04T18:29:26.841Z,6.54
2023-04-04T18:31:53.529Z,6.43
2023-04-04T18:34:20.030Z,6.34
2023-04-04T18:36:49.233Z,6.39
2023-04-04T18:39:17.312Z,6.34
2023-04-04T18:41:44.601Z,6.06
2023-04-04T18:44:11.726Z,5.98
2023-04-04T18:46:39.148Z,6.00
2023-04-04T18:49:05.739Z,6.02
2023-04-04T18:51:32.265Z,5.99
2023-04-04T18:53:58.756Z,5.91
2023-04-04T18:56:26.181Z,5.86
2023-04-04T18:58:52.715Z,5.84
2023-04-04T19:01:19.231Z,5.77
2023-04-04T19:03:51.324Z,5.68
2023-04-04T19:06:17.914Z,5.59
2023-04-04T19:08:44.570Z,5.47
2023-04-04T19:11:11.683Z,5.46
2023-04-04T19:13:38.328Z,5.47
2023-04-04T19:16:05.124Z,5.47
2023-04-04T19:18:31.624Z,5.51
2023-04-04T19:20:58.626Z,5.46
2023-04-04T19:23:25.526Z,5.39
2023-04-04T19:25:52.159Z,5.38
2023-04-04T19:28:18.641Z,5.33
2023-04-04T19:30:49.783Z,5.30
2023-04-04T19:33:18.629Z,5.23
2023-04-04T19:36:11.904Z,5.19
2023-04-04T19:38:42.283Z,5.15
2023-04-04T19:41:13.526Z,5.06
2023-04-04T19:43:41.856Z,4.79
2023-04-04T19:46:10.870Z,4.57
2023-04-04T19:48:49.263Z,4.50
2023-04-04T19:51:16.557Z,4.49
2023-04-04T19:53:44.981Z,4.64
2023-04-04T19:56:13.253Z,4.66
2023-04-04T19:58:39.894Z,4.61
2023-04-04T20:01:08.096Z,4.67
2023-04-04T20:03:39.211Z,4.68
2023-04-04T20:06:22.746Z,4.69
2023-04-04T20:08:51.991Z,4.67
2023-04-04T20:11:24.254Z,4.66
2023-04-04T20:13:50.914Z,4.63
2023-04-04T20:16:17.647Z,4.57
2023-04-04T20:18:46.385Z,4.59
2023-04-04T20:21:14.800Z,4.49
2023-04-04T20:23:53.183Z,4.42
2023-04-04T20:26:38.481Z,4.37
2023-04-04T20:29:13.653Z,4.38
2023-04-04T20:31:49.249Z,4.50
2023-04-04T20:34:37.143Z,4.53
2023-04-04T20:37:07.525Z,4.52
2023-04-04T20:39:45.121Z,4.45
2023-04-04T20:42:18.190Z,4.27
2023-04-04T20:44:45.318Z,4.12
2023-04-04T20:47:47.120Z,4.10
2023-04-04T20:50:22.556Z,4.11
2023-04-04T20:53:05.156Z,4.15
2023-04-04T20:55:33.770Z,4.06
2023-04-04T20:58:08.248Z,4.02
2023-04-04T21:00:39.937Z,4.12
2023-04-04T21:03:23.133Z,3.92
2023-04-04T21:05:49.730Z,3.98
2023-04-04T21:08:19.139Z,3.97
2023-04-04T21:10:51.252Z,4.04
2023-04-04T21:13:28.536Z,4.07
2023-04-04T21:16:00.919Z,4.07
2023-04-04T21:18:29.984Z,4.11
2023-04-04T21:20:56.454Z,4.13
2023-04-04T21:23:26.121Z,4.14
2023-04-04T21:26:01.544Z,4.16
2023-04-04T21:28:35.014Z,4.19
2023-04-04T21:31:06.663Z,4.18
2023-04-04T21:33:33.503Z,4.18
2023-04-04T21:36:00.307Z,4.18
2023-04-04T21:38:32.798Z,4.16
2023-04-04T21:40:59.911Z,4.11
2023-04-04T21:43:26.968Z,4.04
2023-04-04T21:45:56.729Z,4.01
2023-04-04T21:48:26.373Z,3.93
2023-04-04T21:50:53.393Z,3.77
2023-04-04T21:53:21.937Z,3.62
2023-04-04T21:55:48.368Z,3.64
2023-04-04T21:58:14.799Z,3.65
2023-04-04T22:00:41.914Z,3.67
2023-04-04T22:03:09.111Z,3.74
2023-04-04T22:05:39.089Z,3.71
2023-04-04T22:08:06.631Z,3.76
2023-04-04T22:10:33.596Z,3.74
2023-04-04T22:13:00.185Z,3.64
2023-04-04T22:15:29.738Z,3.54
2023-04-04T22:18:03.862Z,3.52
2023-04-04T22:20:33.669Z,3.44
2023-04-04T22:23:05.112Z,3.48
2023-04-04T22:25:33.811Z,3.37
2023-04-04T22:28:03.239Z,3.44
2023-04-04T22:30:31.847Z,3.18
2023-04-04T22:33:03.529Z,3.14
2023-04-04T22:35:30.290Z,3.02
2023-04-04T22:38:00.968Z,2.91
2023-04-04T22:40:28.688Z,2.96
2023-04-04T22:42:56.088Z,3.01
2023-04-04T22:45:23.924Z,2.97
2023-04-04T22:47:50.649Z,2.89
2023-04-04T22:50:19.264Z,2.76
2023-04-04T22:52:46.078Z,2.73
2023-04-04T22:55:15.461Z,2.79
2023-04-04T22:57:41.965Z,2.76
2023-04-04T23:00:11.195Z,2.80
2023-04-04T23:02:42.198Z,2.89
2023-04-04T23:05:09.912Z,2.95
2023-04-04T23:07:37.628Z,2.89
2023-04-04T23:10:05.593Z,2.78
2023-04-04T23:12:32.061Z,2.74
2023-04-04T23:14:58.822Z,2.65
2023-04-04T23:17:25.591Z,2.59
2023-04-04T23:19:52.049Z,2.60
2023-04-04T23:22:18.539Z,2.41
2023-04-04T23:24:45.106Z,2.44
2023-04-04T23:27:12.587Z,2.34
2023-04-04T23:29:39.025Z,2.26
2023-04-04T23:32:05.824Z,2.10
2023-04-04T23:34:32.348Z,2.14
2023-04-04T23:36:58.789Z,2.16
2023-04-04T23:39:25.366Z,2.19
2023-04-04T23:41:51.827Z,2.20
2023-04-04T23:44:18.289Z,2.23
2023-04-04T23:46:45.632Z,2.22
2023-04-04T23:49:12.690Z,2.20
2023-04-04T23:51:40.353Z,2.20
2023-04-04T23:54:07.675Z,2.21
2023-04-04T23:56:34.833Z,2.28
2023-04-04T23:59:01.680Z,2.29
